Time;durP1;ratioP1;P1;durP2;ratioP2;P2;SDS_P1;SDS_P2;PMS_P1;PMS_P2;Temp;Humidity;BMP_temperature;BMP_pressure;BME280_temperature;BME280_humidity;BME280_pressure;Samples;Min_cycle;Max_cycle;Signal;HPM_P1;HPM_P2
2022/10/02 00:02:24;;;;;;;4.97;2.30;;;;;;;15.48;96.61;93691.91;5126354;28;20035;-74
2022/10/02 00:05:01;;;;;;;11.23;3.58;;;;;;;15.54;96.18;93693.22;5126373;28;20027;-74
2022/10/02 00:07:41;;;;;;;6.18;2.67;;;;;;;15.47;96.73;93684.97;5126395;28;20023;-74
2022/10/02 00:10:39;;;;;;;6.00;2.47;;;;;;;15.48;96.74;93691.91;5126143;28;20026;-74
2022/10/02 00:13:07;;;;;;;6.40;2.67;;;;;;;15.49;96.83;93686.19;5126271;28;20308;-75
2022/10/02 00:15:36;;;;;;;8.15;3.67;;;;;;;15.50;96.18;93682.38;5125844;28;20015;-74
2022/10/02 00:18:12;;;;;;;11.63;3.38;;;;;;;15.47;96.08;93693.81;5126141;28;20016;-74
2022/10/02 00:20:48;;;;;;;11.65;3.40;;;;;;;15.49;95.80;93693.47;5125932;28;20022;-75
2022/10/02 00:23:30;;;;;;;7.13;2.97;;;;;;;15.49;96.16;93694.25;5125969;28;20047;-74
2022/10/02 00:26:22;;;;;;;7.15;3.00;;;;;;;15.51;96.31;93699.25;5126315;28;20019;-75
2022/10/02 00:29:14;;;;;;;6.28;2.80;;;;;;;15.49;96.03;93715.75;5125888;28;20027;-75
2022/10/02 00:31:49;;;;;;;6.07;3.20;;;;;;;15.39;93.46;93703.63;5124014;28;20032;-74
2022/10/02 00:34:40;;;;;;;9.32;4.20;;;;;;;15.41;92.70;93709.41;5125489;28;20329;-74
2022/10/02 00:37:30;;;;;;;7.28;2.95;;;;;;;15.39;90.30;93717.03;5125684;28;20308;-74
2022/10/02 00:39:55;;;;;;;8.68;2.45;;;;;;;15.28;88.70;93715.97;5125428;28;20035;-74
2022/10/02 00:42:42;;;;;;;3.42;2.10;;;;;;;15.20;89.74;93722.31;5125979;28;20134;-74
2022/10/02 00:45:26;;;;;;;3.17;1.95;;;;;;;15.17;88.42;93736.44;5125412;28;20077;-74
2022/10/02 00:47:59;;;;;;;4.97;1.92;;;;;;;15.12;87.20;93740.16;5125564;28;20069;-74
2022/10/02 00:51:02;;;;;;;5.63;2.25;;;;;;;15.11;87.44;93751.22;5125519;28;20026;-74
2022/10/02 00:53:46;;;;;;;;;;;;;;;15.08;87.48;93743.84;5125851;28;20374;-74
2022/10/02 00:56:40;;;;;;;2.10;1.48;;;;;;;14.95;85.96;93746.59;5125367;28;20139;-74
2022/10/02 00:59:31;;;;;;;2.65;1.60;;;;;;;14.91;83.98;93740.34;5125365;28;20092;-74
2022/10/02 01:02:35;;;;;;;5.78;1.42;;;;;;;14.88;81.99;93748.31;5111622;28;20043;-75
2022/10/02 01:05:04;;;;;;;1.83;1.00;;;;;;;14.84;79.60;93753.59;5094563;28;20035;-74
2022/10/02 01:07:29;;;;;;;1.60;1.00;;;;;;;14.86;78.01;93748.66;5125129;28;20024;-74
2022/10/02 01:09:55;;;;;;;5.00;1.17;;;;;;;14.87;77.81;93750.22;5124872;28;20072;-74
2022/10/02 01:12:21;;;;;;;1.58;1.00;;;;;;;14.82;77.71;93774.63;5125117;28;20023;-74
2022/10/02 01:14:47;;;;;;;2.75;0.90;;;;;;;14.87;77.25;93749.44;5125126;28;20033;-75
2022/10/02 01:17:33;;;;;;;1.85;0.80;;;;;;;14.93;76.52;93773.00;5124871;28;20051;-75
2022/10/02 01:20:03;;;;;;;2.33;0.70;;;;;;;14.92;75.09;93787.53;5124768;28;20074;-75
2022/10/02 01:22:35;;;;;;;2.42;0.93;;;;;;;14.88;77.05;93767.88;5124887;28;20329;-74
2022/10/02 01:25:03;;;;;;;1.63;1.13;;;;;;;14.88;78.78;93765.19;5124678;28;20024;-75
2022/10/02 01:27:30;;;;;;;2.92;0.93;;;;;;;14.83;78.94;93782.31;5124802;28;20257;-75
2022/10/02 01:30:03;;;;;;;2.35;1.20;;;;;;;14.84;79.11;93783.09;5124692;28;20244;-75
2022/10/02 01:32:28;;;;;;;3.47;1.00;;;;;;;14.79;79.47;93780.66;5124716;28;20043;-75
2022/10/02 01:34:55;;;;;;;1.50;1.00;;;;;;;14.82;80.40;93780.75;5124713;28;20023;-75
2022/10/02 01:37:24;;;;;;;2.80;1.67;;;;;;;14.77;80.10;93780.22;5124602;28;20366;-75
2022/10/02 01:39:51;;;;;;;2.40;1.05;;;;;;;14.76;78.48;93794.75;5124383;28;20055;-74
2022/10/02 01:42:17;;;;;;;4.78;1.17;;;;;;;14.81;78.23;93799.88;5124523;28;20237;-74
2022/10/02 01:44:44;;;;;;;5.50;1.48;;;;;;;14.83;79.01;93803.00;5124311;28;20019;-74
2022/10/02 01:47:19;;;;;;;1.80;0.93;;;;;;;14.75;78.96;93795.88;5124389;28;20054;-74
2022/10/02 01:50:12;;;;;;;1.25;0.80;;;;;;;14.76;77.42;93797.44;5124321;28;20236;-75
2022/10/02 01:52:54;;;;;;;3.38;1.20;;;;;;;14.80;77.31;93798.31;5124247;28;20011;-75
2022/10/02 01:55:37;;;;;;;4.65;0.82;;;;;;;14.79;76.66;93802.13;5124267;28;20020;-74
2022/10/02 01:58:22;;;;;;;1.20;0.80;;;;;;;14.77;75.39;93796.31;5124120;28;20038;-74
2022/10/02 02:01:06;;;;;;;1.85;0.85;;;;;;;14.78;75.97;93792.53;5123848;28;20345;-75
2022/10/02 02:03:58;;;;;;;1.02;0.68;;;;;;;14.63;75.25;93797.47;5124002;28;20027;-74
2022/10/02 02:06:30;;;;;;;1.23;0.75;;;;;;;14.58;76.49;93803.06;5124156;28;20039;-75
2022/10/02 02:09:32;;;;;;;4.03;1.00;;;;;;;14.56;75.00;93805.31;5123932;28;20051;-74
2022/10/02 02:12:23;;;;;;;1.67;0.68;;;;;;;14.50;75.69;93800.50;5107320;28;20062;-74
2022/10/02 02:15:27;;;;;;;5.95;1.38;;;;;;;14.42;75.67;93804.88;5123020;28;20030;-74
2022/10/02 02:18:12;;;;;;;1.50;0.93;;;;;;;14.37;75.70;93797.84;5021801;28;20022;-74
2022/10/02 02:20:46;;;;;;;2.45;0.98;;;;;;;14.37;76.31;93821.16;5118218;28;20043;-74
2022/10/02 02:23:16;;;;;;;5.45;0.85;;;;;;;14.39;76.95;93821.63;5123063;28;20039;-74
2022/10/02 02:25:46;;;;;;;6.35;0.70;;;;;;;14.38;76.20;93826.19;5123587;28;20098;-75
2022/10/02 02:28:13;;;;;;;4.28;1.13;;;;;;;14.41;75.65;93819.38;5123576;28;20064;-74
2022/10/02 02:30:44;;;;;;;7.18;0.93;;;;;;;14.43;75.20;93828.66;5123616;28;20020;-74
2022/10/02 02:33:17;;;;;;;4.05;1.25;;;;;;;14.46;76.00;93837.94;5123514;28;20050;-74
2022/10/02 02:35:47;;;;;;;2.47;1.08;;;;;;;14.45;75.50;93831.03;5123480;28;20309;-76
2022/10/02 02:38:23;;;;;;;3.80;1.17;;;;;;;14.45;76.33;93820.28;5123329;28;20249;-75
2022/10/02 02:40:50;;;;;;;3.33;1.25;;;;;;;14.43;75.60;93833.22;5123286;28;20087;-74
2022/10/02 02:43:30;;;;;;;1.55;0.80;;;;;;;14.46;76.04;93840.63;5123302;28;20272;-74
2022/10/02 02:46:01;;;;;;;3.58;1.77;;;;;;;14.43;75.99;93838.59;5123595;28;20262;-74
2022/10/02 02:48:38;;;;;;;2.55;1.23;;;;;;;14.49;76.17;93849.88;5123563;28;20094;-74
2022/10/02 02:51:17;;;;;;;4.85;1.30;;;;;;;14.45;76.06;93852.47;5123465;28;20061;-74
2022/10/02 02:53:51;;;;;;;3.00;1.08;;;;;;;14.48;76.18;93851.78;5123196;28;20031;-74
2022/10/02 02:56:18;;;;;;;3.00;0.90;;;;;;;14.44;75.90;93854.34;5123164;28;20030;-74
2022/10/02 02:59:04;;;;;;;2.17;1.10;;;;;;;14.48;76.67;93859.81;5123054;28;20027;-74
2022/10/02 03:01:30;;;;;;;1.00;0.80;;;;;;;14.44;76.70;93854.34;5122070;28;20077;-74
2022/10/02 03:03:55;;;;;;;2.05;0.95;;;;;;;14.43;76.26;93866.22;5122774;28;20061;-74
2022/10/02 03:06:32;;;;;;;2.63;1.35;;;;;;;14.47;76.43;93876.25;5123339;28;20348;-74
2022/10/02 03:09:23;;;;;;;2.33;1.20;;;;;;;14.48;76.51;93889.31;5122981;28;20019;-74
2022/10/02 03:12:17;;;;;;;3.83;1.35;;;;;;;14.44;75.77;93899.16;5122816;28;20038;-74
2022/10/02 03:14:53;;;;;;;2.88;1.63;;;;;;;14.42;75.89;93898.72;5122979;28;20224;-74
2022/10/02 03:17:31;;;;;;;6.43;1.65;;;;;;;14.43;76.01;93902.94;5122878;28;20023;-74
2022/10/02 03:20:05;;;;;;;2.70;1.73;;;;;;;14.40;75.90;93882.97;5122882;28;20314;-74
2022/10/02 03:23:14;;;;;;;2.75;1.88;;;;;;;14.42;75.08;93906.75;5122962;28;20129;-74
2022/10/02 03:25:48;;;;;;;9.13;2.08;;;;;;;14.38;75.87;93922.72;5020660;28;20358;-74
2022/10/02 03:28:34;;;;;;;2.28;1.73;;;;;;;14.36;75.92;93914.25;5020543;28;20021;-74
2022/10/02 03:30:59;;;;;;;4.38;2.13;;;;;;;14.34;76.94;93937.91;5091441;28;20106;-74
2022/10/02 03:33:26;;;;;;;8.10;1.63;;;;;;;14.24;76.93;93923.06;5124004;28;20020;-75
2022/10/02 03:35:54;;;;;;;5.75;1.88;;;;;;;14.20;77.65;93922.16;5127024;28;20020;-74
2022/10/02 03:38:21;;;;;;;4.03;1.60;;;;;;;14.17;77.05;93928.19;5126745;28;20061;-74
2022/10/02 03:40:46;;;;;;;9.70;1.80;;;;;;;14.17;77.20;93938.16;5126626;28;20061;-74
2022/10/02 03:43:20;;;;;;;3.08;1.80;;;;;;;14.15;77.15;93941.16;5126776;28;20095;-74
2022/10/02 03:45:46;;;;;;;5.15;1.77;;;;;;;14.12;76.29;93931.09;5126602;28;20027;-75
2022/10/02 03:48:12;;;;;;;2.63;1.85;;;;;;;14.18;76.71;93940.47;5126945;28;20034;-75
2022/10/02 03:50:37;;;;;;;4.13;1.90;;;;;;;14.14;76.43;93938.78;5126536;28;20015;-74
2022/10/02 03:53:17;;;;;;;2.47;1.80;;;;;;;14.11;76.45;93929.53;5126795;28;20015;-75
2022/10/02 03:55:56;;;;;;;3.03;2.00;;;;;;;14.17;77.40;93938.91;5126454;28;20027;-74
2022/10/02 03:58:24;;;;;;;3.70;2.33;;;;;;;14.07;76.75;93934.00;5126789;28;20106;-75
2022/10/02 04:01:00;;;;;;;3.17;1.92;;;;;;;14.09;76.15;93923.72;5126293;28;20031;-74
2022/10/02 04:03:41;;;;;;;3.38;2.33;;;;;;;14.00;76.90;93936.41;5126587;28;20094;-74
2022/10/02 04:06:18;;;;;;;5.75;1.67;;;;;;;13.95;76.99;93950.81;5126276;28;20244;-74
2022/10/02 04:08:55;;;;;;;3.42;2.17;;;;;;;13.94;76.24;93960.00;5126256;28;20054;-74
2022/10/02 04:11:29;;;;;;;3.78;2.20;;;;;;;13.94;76.00;93933.19;5126723;28;20031;-75
2022/10/02 04:14:10;;;;;;;3.60;1.88;;;;;;;13.97;76.21;93961.22;5126341;28;20163;-74
2022/10/02 04:17:14;;;;;;;2.78;1.52;;;;;;;14.02;75.55;93985.09;5126171;28;20024;-74
2022/10/02 04:19:53;;;;;;;2.40;1.48;;;;;;;14.03;75.70;93975.97;5125943;28;20034;-74
2022/10/02 04:22:33;;;;;;;2.83;2.08;;;;;;;14.07;76.30;93995.63;5125936;28;20015;-74
2022/10/02 04:25:05;;;;;;;5.30;1.98;;;;;;;14.10;76.80;93994.97;5125841;28;20095;-75
2022/10/02 04:27:46;;;;;;;3.15;1.92;;;;;;;14.12;76.30;93998.09;5125876;28;20031;-74
2022/10/02 04:30:18;;;;;;;6.57;2.05;;;;;;;14.12;76.90;94000.78;5125872;28;20043;-74
2022/10/02 04:32:44;;;;;;;4.63;2.30;;;;;;;14.14;77.29;93993.19;5125654;28;20020;-74
2022/10/02 04:35:15;;;;;;;3.10;1.90;;;;;;;14.12;76.60;94000.78;5126232;28;20222;-75
2022/10/02 04:37:44;;;;;;;6.17;2.33;;;;;;;14.12;77.58;94000.78;5125769;28;20031;-75
2022/10/02 04:40:35;;;;;;;3.70;2.33;;;;;;;14.09;77.65;94012.16;5125571;28;20104;-75
2022/10/02 04:43:19;;;;;;;4.68;2.30;;;;;;;14.03;76.09;94013.50;5125767;28;20042;-74
2022/10/02 04:45:55;;;;;;;2.63;2.05;;;;;;;14.06;76.75;94012.81;5124819;28;20518;-74
2022/10/02 04:48:36;;;;;;;2.80;2.00;;;;;;;14.04;76.20;94015.84;5125688;28;20260;-74
2022/10/02 04:51:18;;;;;;;2.53;1.67;;;;;;;14.05;75.16;94016.63;5125558;28;20218;-74
2022/10/02 04:54:02;;;;;;;;;;;;;;;13.96;75.97;94032.00;5125674;28;20019;-74
2022/10/02 04:56:30;;;;;;;3.67;2.33;;;;;;;13.93;76.79;94036.13;5125323;28;20184;-74
2022/10/02 04:59:25;;;;;;;3.35;1.63;;;;;;;13.96;75.66;94040.03;5125218;28;20190;-75
2022/10/02 05:02:05;;;;;;;2.97;2.05;;;;;;;13.92;75.61;94045.28;5125461;28;20327;-74
2022/10/02 05:04:33;;;;;;;3.75;1.50;;;;;;;13.95;75.11;94038.47;5125105;28;20023;-74
2022/10/02 05:07:20;;;;;;;2.15;1.65;;;;;;;13.89;75.61;94045.16;5125219;28;20035;-74
2022/10/02 05:09:53;;;;;;;3.75;1.70;;;;;;;13.90;75.19;94036.78;5125089;28;20098;-74
2022/10/02 05:12:43;;;;;;;5.15;1.92;;;;;;;13.83;74.86;94034.63;5124841;28;20027;-73
2022/10/02 05:15:45;;;;;;;4.50;1.73;;;;;;;13.87;72.95;94056.19;5124957;28;20035;-74
2022/10/02 05:18:19;;;;;;;3.00;1.73;;;;;;;13.89;72.25;94055.88;5125056;28;20019;-74
2022/10/02 05:20:45;;;;;;;3.35;1.75;;;;;;;13.92;72.42;94033.75;5124646;28;20026;-74
2022/10/02 05:23:32;;;;;;;2.83;1.77;;;;;;;14.02;72.27;94030.66;5124651;28;20023;-74
2022/10/02 05:26:09;;;;;;;2.47;1.65;;;;;;;14.07;70.24;94035.06;5125346;28;20019;-74
2022/10/02 05:29:07;;;;;;;2.75;1.55;;;;;;;14.07;70.09;94041.19;5124805;28;20027;-74
2022/10/02 05:31:53;;;;;;;3.30;1.35;;;;;;;14.10;69.08;94042.44;5086501;28;20054;-75
2022/10/02 05:34:43;;;;;;;3.42;1.85;;;;;;;14.08;69.18;94026.66;5124807;28;20158;-75
2022/10/02 05:37:18;;;;;;;2.60;1.40;;;;;;;14.13;68.48;94055.19;5124570;28;20019;-74
2022/10/02 05:39:53;;;;;;;3.65;2.13;;;;;;;14.17;67.80;94021.25;5124334;28;20065;-75
2022/10/02 05:42:42;;;;;;;5.25;1.80;;;;;;;14.16;68.42;94074.03;5124541;28;20186;-75
2022/10/02 05:45:38;;;;;;;4.40;1.73;;;;;;;14.13;67.36;94031.06;5124350;28;20016;-74
2022/10/02 05:48:16;;;;;;;3.58;1.60;;;;;;;14.03;65.87;94042.97;5123667;28;20032;-75
2022/10/02 05:50:42;;;;;;;3.95;1.50;;;;;;;14.04;66.58;94068.63;5124288;28;20020;-75
2022/10/02 05:53:25;;;;;;;3.75;1.80;;;;;;;14.05;65.64;94051.47;5124390;28;20082;-74
2022/10/02 05:55:57;;;;;;;4.25;1.70;;;;;;;14.05;65.63;94051.47;5124437;28;20030;-75
2022/10/02 05:58:31;;;;;;;2.03;1.38;;;;;;;14.03;65.92;94056.38;5123534;28;20252;-75
2022/10/02 06:01:09;;;;;;;2.42;1.50;;;;;;;14.03;66.93;94051.78;5124093;28;20104;-75
2022/10/02 06:03:44;;;;;;;3.05;1.80;;;;;;;14.01;66.70;94059.38;5123968;28;20225;-74
2022/10/02 06:06:19;;;;;;;4.30;1.95;;;;;;;14.00;66.32;94062.38;5123938;28;20023;-75
2022/10/02 06:08:59;;;;;;;3.30;2.10;;;;;;;14.03;66.96;94069.78;5123882;28;20024;-75
2022/10/02 06:11:33;;;;;;;2.47;1.88;;;;;;;14.09;66.94;94073.03;5123912;28;20352;-75
2022/10/02 06:14:16;;;;;;;2.72;1.70;;;;;;;14.04;65.57;94076.69;5105741;28;20027;-75
2022/10/02 06:16:58;;;;;;;2.65;1.80;;;;;;;13.94;65.69;94085.13;5123967;28;20023;-75
2022/10/02 06:19:32;;;;;;;3.03;2.10;;;;;;;14.04;66.32;94104.28;5123846;28;20015;-75
2022/10/02 06:22:12;;;;;;;3.22;2.35;;;;;;;14.14;65.39;94097.72;5123999;28;20019;-75
2022/10/02 06:25:10;;;;;;;3.03;2.20;;;;;;;14.15;65.48;94091.25;5123899;28;20321;-75
2022/10/02 06:27:52;;;;;;;3.95;2.10;;;;;;;14.18;63.92;94112.03;5114951;28;20032;-75
2022/10/02 06:30:18;;;;;;;4.47;1.95;;;;;;;14.25;63.78;94112.28;5123862;28;20020;-75
2022/10/02 06:33:08;;;;;;;3.00;2.10;;;;;;;14.26;62.91;94121.09;5123707;28;20015;-74
2022/10/02 06:35:50;;;;;;;2.58;1.83;;;;;;;14.31;64.14;94125.47;5123443;28;20343;-75
2022/10/02 06:38:34;;;;;;;2.63;2.08;;;;;;;14.32;63.87;94129.75;5123297;28;20047;-74
2022/10/02 06:41:22;;;;;;;3.97;2.75;;;;;;;14.26;64.59;94134.50;5123245;28;20031;-75
2022/10/02 06:44:07;;;;;;;2.75;1.50;;;;;;;14.29;63.85;94138.44;5123484;28;20226;-75
2022/10/02 06:46:49;;;;;;;2.13;1.70;;;;;;;14.41;64.42;94122.38;5123117;28;20060;-75
2022/10/02 06:49:26;;;;;;;4.28;1.70;;;;;;;14.53;63.26;94145.78;5123482;28;20026;-75
2022/10/02 06:51:54;;;;;;;5.00;2.22;;;;;;;14.60;63.42;94138.03;5123419;28;20015;-74
2022/10/02 06:54:33;;;;;;;7.10;1.90;;;;;;;14.68;63.27;94147.09;5123469;28;20039;-74
2022/10/02 06:57:01;;;;;;;3.85;1.98;;;;;;;14.73;62.75;94133.47;5105216;28;20313;-75
2022/10/02 06:59:49;;;;;;;3.05;1.70;;;;;;;14.82;61.91;94161.00;5123185;28;20027;-74
2022/10/02 07:02:23;;;;;;;2.63;1.85;;;;;;;14.87;61.69;94142.00;5123209;28;20027;-74
2022/10/02 07:05:07;;;;;;;2.20;1.60;;;;;;;14.88;61.55;94132.84;5123371;28;20055;-75
2022/10/02 07:08:03;;;;;;;2.35;1.52;;;;;;;14.91;62.16;94161.69;5123203;28;20060;-74
2022/10/02 07:10:46;;;;;;;3.47;1.90;;;;;;;14.90;62.49;94175.41;5119577;28;20035;-75
2022/10/02 07:13:34;;;;;;;4.70;1.77;;;;;;;14.79;62.62;94156.28;5127353;28;20050;-74
2022/10/02 07:16:24;;;;;;;4.15;1.65;;;;;;;14.75;62.59;94163.44;5127215;28;20030;-75
2022/10/02 07:19:13;;;;;;;4.60;1.80;;;;;;;14.85;61.11;94155.72;5127259;28;20023;-75
2022/10/02 07:21:47;;;;;;;2.30;1.42;;;;;;;14.94;59.29;94179.00;5127228;28;20035;-74
2022/10/02 07:24:18;;;;;;;3.80;1.33;;;;;;;14.91;60.41;94169.72;5127170;28;20031;-74
2022/10/02 07:26:57;;;;;;;3.67;1.65;;;;;;;15.00;60.33;94193.78;5127205;28;20323;-74
2022/10/02 07:29:42;;;;;;;2.03;1.17;;;;;;;14.88;58.81;94191.88;5127389;28;20058;-75
2022/10/02 07:32:38;;;;;;;3.63;1.50;;;;;;;14.84;58.51;94181.00;5127171;28;20215;-74
2022/10/02 07:35:25;;;;;;;2.40;1.38;;;;;;;14.82;58.52;94193.19;5126971;28;20094;-74
2022/10/02 07:38:05;;;;;;;2.30;1.30;;;;;;;14.89;58.55;94209.53;5126947;28;20015;-75
2022/10/02 07:40:46;;;;;;;8.82;1.77;;;;;;;14.97;59.00;94195.22;5126727;28;20034;-74
2022/10/02 07:43:48;;;;;;;4.75;1.80;;;;;;;14.89;58.70;94190.75;5126972;28;20072;-75
2022/10/02 07:46:25;;;;;;;3.75;1.23;;;;;;;14.93;58.73;94194.34;5095386;28;20035;-74
2022/10/02 07:49:00;;;;;;;6.13;1.30;;;;;;;14.99;57.70;94192.22;5126791;28;20054;-75
2022/10/02 07:51:49;;;;;;;2.30;1.23;;;;;;;15.00;55.78;94204.50;5126663;28;20015;-74
2022/10/02 07:54:27;;;;;;;7.22;1.10;;;;;;;14.91;54.74;94212.66;5126741;28;20034;-75
2022/10/02 07:56:57;;;;;;;1.95;1.20;;;;;;;14.86;54.57;94226.31;5126748;28;20317;-75
2022/10/02 07:59:23;;;;;;;1.20;0.80;;;;;;;14.81;53.93;94205.03;5126505;28;20049;-76
2022/10/02 08:01:50;;;;;;;2.88;1.30;;;;;;;14.87;55.57;94206.41;5126321;28;20023;-76
2022/10/02 08:04:26;;;;;;;2.50;1.10;;;;;;;14.96;55.61;94203.63;5126374;28;20340;-75
2022/10/02 08:06:57;;;;;;;1.85;1.10;;;;;;;14.99;56.75;94202.97;5126216;28;20339;-74
2022/10/02 08:09:34;;;;;;;1.75;1.05;;;;;;;15.10;56.90;94212.16;5126534;28;20056;-75
2022/10/02 08:12:08;;;;;;;2.85;1.23;;;;;;;15.08;55.85;94216.28;5126252;28;20019;-75
2022/10/02 08:14:37;;;;;;;5.55;1.35;;;;;;;15.14;56.32;94214.97;5126215;28;20053;-75
2022/10/02 08:17:16;;;;;;;12.35;1.25;;;;;;;15.21;55.21;94248.19;5126184;28;20105;-75
2022/10/02 08:19:50;;;;;;;3.70;2.00;;;;;;;15.23;55.99;94226.41;5124404;28;20034;-76
2022/10/02 08:22:27;;;;;;;2.33;1.10;;;;;;;15.15;55.58;94227.28;5125569;28;20099;-74
2022/10/02 08:24:57;;;;;;;3.60;1.00;;;;;;;15.16;56.43;94221.59;5126240;28;20024;-74
2022/10/02 08:27:58;;;;;;;3.58;1.40;;;;;;;15.33;57.59;94228.66;5126138;28;20030;-75
2022/10/02 08:30:24;;;;;;;2.47;1.60;;;;;;;15.38;56.21;94231.09;5121981;28;20040;-74
2022/10/02 08:32:49;;;;;;;4.65;0.93;;;;;;;15.39;53.92;94216.56;5125919;28;20230;-75
2022/10/02 08:35:18;;;;;;;6.28;1.08;;;;;;;15.41;55.34;94208.19;5125941;28;20031;-75
2022/10/02 08:38:26;;;;;;;3.47;1.10;;;;;;;15.42;54.49;94210.50;5125663;28;20094;-75
2022/10/02 08:41:17;;;;;;;1.88;1.45;;;;;;;15.33;54.65;94207.16;5023257;28;20233;-75
2022/10/02 08:44:20;;;;;;;2.13;1.00;;;;;;;15.40;54.04;94215.44;5023475;28;20172;-75
2022/10/02 08:47:08;;;;;;;4.00;1.10;;;;;;;15.47;54.84;94211.41;5115710;28;20103;-75
2022/10/02 08:49:55;;;;;;;2.85;0.90;;;;;;;15.48;53.68;94218.38;5125677;28;20030;-76
2022/10/02 08:52:44;;;;;;;2.08;0.95;;;;;;;15.44;54.07;94210.19;5125739;28;20068;-75
2022/10/02 08:55:25;;;;;;;3.25;1.00;;;;;;;15.37;54.88;94208.06;5107181;28;20286;-75
2022/10/02 08:58:18;;;;;;;2.53;1.30;;;;;;;15.36;54.13;94209.16;5125619;28;20076;-75
2022/10/02 09:01:09;;;;;;;2.38;1.48;;;;;;;15.43;53.73;94228.22;5125430;28;20024;-76
2022/10/02 09:03:47;;;;;;;1.38;0.90;;;;;;;15.47;53.39;94212.22;5125273;28;20023;-76
2022/10/02 09:06:43;;;;;;;7.22;1.50;;;;;;;15.50;54.56;94221.50;5125361;28;20035;-76
2022/10/02 09:09:37;;;;;;;3.92;1.20;;;;;;;15.48;52.35;94202.25;5125076;28;20030;-76
2022/10/02 09:12:20;;;;;;;2.22;1.02;;;;;;;15.45;53.92;94219.81;5124904;28;20026;-76
2022/10/02 09:15:30;;;;;;;2.70;1.13;;;;;;;15.44;53.23;94210.97;5125139;28;20194;-75
2022/10/02 09:18:22;;;;;;;1.65;1.10;;;;;;;15.53;54.16;94193.94;5098758;28;20329;-75
2022/10/02 09:20:53;;;;;;;2.92;1.00;;;;;;;15.56;52.89;94198.66;5085732;28;20028;-75
2022/10/02 09:23:33;;;;;;;2.47;1.10;;;;;;;15.57;52.82;94202.91;5124985;28;20029;-75
2022/10/02 09:26:36;;;;;;;2.40;1.23;;;;;;;15.67;53.69;94204.38;5124809;28;20351;-76
2022/10/02 09:29:33;;;;;;;3.45;1.70;;;;;;;15.75;53.93;94208.88;5124735;28;20024;-76
2022/10/02 09:32:41;;;;;;;2.40;1.30;;;;;;;15.86;53.31;94219.97;5106302;28;20027;-75
2022/10/02 09:35:39;;;;;;;2.63;1.50;;;;;;;15.91;53.47;94200.91;5124398;28;20349;-75
2022/10/02 09:38:28;;;;;;;2.72;1.20;;;;;;;15.94;51.38;94197.56;5124485;28;20020;-76
2022/10/02 09:41:05;;;;;;;2.80;1.52;;;;;;;15.98;52.15;94199.22;5124658;28;20103;-76
2022/10/02 09:43:47;;;;;;;2.97;0.90;;;;;;;16.01;52.01;94187.78;5124556;28;20060;-76
2022/10/02 09:46:43;;;;;;;1.90;1.00;;;;;;;16.05;52.00;94194.06;5124387;28;20023;-75
2022/10/02 09:49:45;;;;;;;2.17;1.00;;;;;;;16.34;52.16;94211.00;5124529;28;20315;-76
2022/10/02 09:52:29;;;;;;;1.73;1.20;;;;;;;16.53;52.38;94213.09;5124505;28;20007;-75
2022/10/02 09:55:16;;;;;;;2.30;1.13;;;;;;;16.63;53.04;94209.16;5124308;28;20325;-73
2022/10/02 09:57:56;;;;;;;1.98;1.05;;;;;;;16.42;51.28;94223.56;5124300;28;20019;-75
2022/10/02 10:00:45;;;;;;;2.00;1.30;;;;;;;16.33;50.13;94208.69;5124158;28;20046;-75
2022/10/02 10:03:10;;;;;;;2.03;1.00;;;;;;;16.28;49.27;94212.38;5124129;28;20301;-75
2022/10/02 10:06:20;;;;;;;3.50;1.05;;;;;;;16.20;49.39;94200.66;5124147;28;20043;-75
2022/10/02 10:09:01;;;;;;;3.03;1.30;;;;;;;15.94;50.89;94229.81;5118839;28;20031;-75
2022/10/02 10:11:49;;;;;;;2.67;1.08;;;;;;;15.90;51.98;94228.94;5124164;28;20038;-75
2022/10/02 10:14:38;;;;;;;3.88;1.20;;;;;;;15.78;51.29;94217.06;5123927;28;20023;-75
2022/10/02 10:17:29;;;;;;;4.85;1.20;;;;;;;15.94;52.50;94202.94;5123765;28;20724;-75
2022/10/02 10:20:13;;;;;;;2.00;1.40;;;;;;;16.16;52.49;94199.75;5123892;28;20329;-75
2022/10/02 10:23:02;;;;;;;1.77;1.20;;;;;;;16.22;49.87;94203.78;5123934;28;20032;-75
2022/10/02 10:25:49;;;;;;;4.50;1.10;;;;;;;16.18;50.88;94204.78;5123894;28;20031;-75
2022/10/02 10:28:36;;;;;;;2.20;1.00;;;;;;;16.22;51.21;94182.28;5123639;28;20023;-75
2022/10/02 10:31:44;;;;;;;2.33;0.90;;;;;;;16.34;51.05;94200.25;5123460;28;20326;-75
2022/10/02 10:34:44;;;;;;;2.53;1.20;;;;;;;16.36;50.01;94160.34;5123653;28;20023;-75
2022/10/02 10:40:24;;;;;;;0.73;0.60;;;;;;;16.32;49.25;94175.59;5123414;28;20098;-76
2022/10/02 10:43:09;;;;;;;0.75;0.65;;;;;;;16.39;49.35;94169.66;5123061;28;20222;-75
2022/10/02 10:45:47;;;;;;;2.40;0.90;;;;;;;16.44;50.24;94182.84;5123471;28;20049;-76
2022/10/02 10:48:46;;;;;;;3.55;0.90;;;;;;;16.55;49.08;94178.56;5123479;28;20019;-75
2022/10/02 10:51:23;;;;;;;4.25;1.10;;;;;;;16.64;51.54;94179.19;5123319;28;20019;-75
2022/10/02 10:54:23;;;;;;;5.03;1.05;;;;;;;16.77;50.76;94203.34;5123202;28;20039;-75
2022/10/02 10:56:55;;;;;;;1.52;1.05;;;;;;;16.72;46.51;94211.69;5081481;28;20092;-75
2022/10/02 10:59:58;;;;;;;1.75;0.80;;;;;;;16.73;47.34;94194.41;5123573;28;20054;-75
2022/10/02 11:02:35;;;;;;;1.48;1.00;;;;;;;16.83;48.93;94196.63;5123482;28;20253;-75
2022/10/02 11:05:24;;;;;;;4.20;1.00;;;;;;;16.95;48.33;94183.09;5123203;28;20318;-76
2022/10/02 11:08:17;;;;;;;4.00;1.00;;;;;;;16.91;47.25;94198.38;5123259;28;20024;-75
2022/10/02 11:10:45;;;;;;;1.20;0.75;;;;;;;16.84;47.22;94206.28;5123052;28;20020;-75
2022/10/02 11:13:32;;;;;;;1.25;0.90;;;;;;;16.87;46.65;94178.66;5123310;28;20046;-75
2022/10/02 11:16:10;;;;;;;1.65;0.68;;;;;;;16.90;46.19;94182.59;5123144;28;20321;-75
2022/10/02 11:19:04;;;;;;;1.27;0.80;;;;;;;16.75;45.75;94168.72;5123171;28;20229;-75
2022/10/02 11:21:50;;;;;;;1.13;0.80;;;;;;;16.80;46.29;94194.59;5123139;28;20032;-76
2022/10/02 11:24:44;;;;;;;2.33;0.75;;;;;;;16.91;46.60;94187.59;5123291;28;20031;-75
2022/10/02 11:27:39;;;;;;;2.60;0.95;;;;;;;16.96;47.53;94179.28;5122940;28;20023;-74
2022/10/02 11:30:11;;;;;;;1.83;0.75;;;;;;;17.04;47.46;94183.72;5123157;28;20046;-76
2022/10/02 11:32:56;;;;;;;3.90;1.00;;;;;;;17.06;46.98;94175.31;5122787;28;20322;-76
2022/10/02 11:35:43;;;;;;;1.38;0.75;;;;;;;17.17;47.48;94181.75;5123170;28;20023;-76
2022/10/02 11:38:18;;;;;;;2.08;1.10;;;;;;;17.25;47.49;94183.47;5122812;28;20015;-76
2022/10/02 11:40:43;;;;;;;3.63;0.70;;;;;;;17.09;45.56;94190.00;5122848;28;20034;-75
2022/10/02 11:43:18;;;;;;;3.08;0.90;;;;;;;17.08;46.66;94186.53;5122760;28;20024;-76
2022/10/02 11:46:13;;;;;;;3.33;1.00;;;;;;;17.16;47.72;94193.66;5122906;28;20348;-76
2022/10/02 11:49:19;;;;;;;2.30;0.90;;;;;;;17.23;46.66;94191.13;5123107;28;20061;-75
2022/10/02 11:52:09;;;;;;;2.03;0.77;;;;;;;17.47;47.41;94196.72;5020570;28;20046;-75
2022/10/02 11:54:58;;;;;;;3.15;0.90;;;;;;;17.49;45.09;94189.06;5122985;28;20031;-76
2022/10/02 11:57:46;;;;;;;0.85;0.50;;;;;;;17.60;45.02;94198.16;5126769;28;20016;-75
2022/10/02 12:00:16;;;;;;;0.82;0.52;;;;;;;17.57;45.96;94196.19;5126621;28;20275;-75
2022/10/02 12:02:48;;;;;;;2.72;0.77;;;;;;;17.50;44.84;94221.03;5126199;28;20265;-74
2022/10/02 12:05:43;;;;;;;1.10;0.52;;;;;;;17.58;46.53;94185.03;5126423;28;20032;-75
2022/10/02 12:08:16;;;;;;;6.90;0.95;;;;;;;17.62;45.30;94193.22;5126501;28;20103;-74
2022/10/02 12:11:04;;;;;;;1.25;0.60;;;;;;;17.54;46.09;94178.78;5126500;28;20321;-75
2022/10/02 12:13:50;;;;;;;1.45;0.85;;;;;;;17.65;46.35;94189.84;5126234;28;20031;-75
2022/10/02 12:16:34;;;;;;;3.17;0.90;;;;;;;17.68;44.91;94197.22;5126216;28;20039;-76
2022/10/02 12:19:39;;;;;;;4.63;1.05;;;;;;;17.59;44.82;94191.22;5126150;28;20028;-75
2022/10/02 12:28:38;;;;;;;1.80;0.75;;;;;;;17.54;46.38;94186.09;5126049;28;20360;-75
2022/10/02 12:31:17;;;;;;;1.08;0.73;;;;;;;17.61;46.07;94172.78;5126128;28;20023;-76
2022/10/02 12:34:00;;;;;;;1.48;0.80;;;;;;;17.69;46.55;94160.25;5125791;28;20015;-75
2022/10/02 12:36:33;;;;;;;1.55;0.80;;;;;;;17.69;46.35;94168.31;5126162;28;20038;-76
2022/10/02 12:39:28;;;;;;;1.48;0.90;;;;;;;17.76;46.02;94173.91;5125655;28;20271;-75
2022/10/02 12:42:31;;;;;;;2.03;1.13;;;;;;;17.80;45.51;94153.19;5125645;28;20039;-74
2022/10/02 12:45:02;;;;;;;2.70;1.17;;;;;;;17.89;46.11;94177.28;5125565;28;20023;-76
2022/10/02 12:47:28;;;;;;;1.85;1.02;;;;;;;17.80;44.93;94182.84;5125844;28;20090;-75
2022/10/02 12:50:22;;;;;;;2.15;1.08;;;;;;;17.67;45.75;94174.09;5125824;28;20076;-77